North Arm Prowler — CZ3772 — position and weather

sailwx.info

Track history (hours):
 
Tides and Currents Weather Stations Pressure Air Temp Water Temp Dewpoint Dewpoint Depression Visibility Wind Speed Wind Dir Waves Ship Positions

North Arm Prowler

Last reported at 2017-Oct-13 19:40 UTC. Time now 2017-Oct-17 22:52 UTC.
Position N 49°12' W 123°03'.

Length 16 m.

Type: Towing. MMSI: 316000551.

Date/timePositionNaut miles runAvg speedWind from/ knotsBaromVisibWave heightAir tempDewpointWater temp
2017-Oct-13 19:40N 49°12' W 123°03'0 2.7
2017-Oct-13 19:30N 49°12' W 123°04'3 5.6
2017-Oct-13 19:00N 49°12' W 123°08'0 0.0
2017-Oct-13 18:30N 49°12' W 123°08'1 1.5
2017-Oct-13 18:00N 49°12' W 123°07'1 2.3
2017-Oct-13 17:30N 49°12' W 123°05'1 2.3
2017-Oct-13 17:00N 49°12' W 123°07'1 1.4
2017-Oct-13 16:30N 49°12' W 123°06'1 2.3
2017-Oct-13 16:00N 49°12' W 123°04'1 1.5
2017-Oct-13 15:30N 49°12' W 123°03'0 0.0
2017-Oct-13 15:00N 49°12' W 123°03'0 0.0
2017-Oct-13 14:30N 49°12' W 123°03'0 0.0
2017-Oct-13 14:00N 49°12' W 123°03'0 0.0
2017-Oct-12 19:37N 49°12' W 123°03'0 0.0
2017-Oct-12 19:30N 49°12' W 123°03'0 0.0
2017-Oct-12 19:00N 49°12' W 123°03'0 0.0
2017-Oct-12 18:30N 49°12' W 123°03'0 0.0
2017-Oct-12 18:00N 49°12' W 123°03'0 0.0
2017-Oct-12 17:30N 49°12' W 123°03'0 0.0
2017-Oct-12 17:00N 49°12' W 123°03'0 0.0
2017-Oct-12 16:30N 49°12' W 123°03'0 0.0
2017-Oct-12 16:00N 49°12' W 123°03'0 0.0
2017-Oct-12 15:31N 49°12' W 123°03'0 0.0
2017-Oct-12 15:00N 49°12' W 123°03'0 0.0
2017-Oct-12 14:31N 49°12' W 123°03'0 0.0
2017-Oct-12 14:00N 49°12' W 123°03'0 0.0
2017-Oct-12 13:30N 49°12' W 123°03'0 0.0
2017-Oct-12 13:01N 49°12' W 123°03'0 0.0
2017-Oct-12 12:30N 49°12' W 123°03'0 0.0
2017-Oct-12 12:00N 49°12' W 123°03'0 0.0
2017-Oct-12 11:30N 49°12' W 123°03'0 0.0
2017-Oct-12 11:01N 49°12' W 123°03'0 0.0
2017-Oct-12 10:30N 49°12' W 123°03'0 0.0
2017-Oct-12 10:01N 49°12' W 123°03'0 0.0
2017-Oct-12 09:30N 49°12' W 123°03'0 0.0
2017-Oct-12 09:00N 49°12' W 123°03'0 0.0
2017-Oct-12 08:30N 49°12' W 123°03'0 0.0
2017-Oct-12 08:01N 49°12' W 123°03'0 0.0
2017-Oct-12 07:30N 49°12' W 123°03'0 0.0
2017-Oct-12 07:00N 49°12' W 123°03'0 0.0
2017-Oct-12 06:30N 49°12' W 123°03'0 0.0
2017-Oct-12 06:01N 49°12' W 123°03'0 0.0
2017-Oct-12 05:30N 49°12' W 123°03'0 0.0
2017-Oct-12 05:00N 49°12' W 123°03'0 0.0
2017-Oct-12 04:30N 49°12' W 123°03'0 0.0
2017-Oct-12 04:00N 49°12' W 123°03'0 0.0
2017-Oct-12 03:31N 49°12' W 123°03'0 0.0
2017-Oct-12 03:00N 49°12' W 123°03'0 0.0
2017-Oct-12 02:30N 49°12' W 123°03'0 0.0
2017-Oct-12 02:00N 49°12' W 123°03'0 0.0
2017-Oct-12 01:31N 49°12' W 123°03'0 0.0
2017-Oct-12 01:00N 49°12' W 123°03'0 0.0
2017-Oct-12 00:30N 49°12' W 123°03'0 0.0
2017-Oct-12 00:01N 49°12' W 123°03'0 0.0
2017-Oct-11 23:30N 49°12' W 123°03'0 0.0
2017-Oct-11 23:00N 49°12' W 123°03'0 0.0
2017-Oct-11 22:30N 49°12' W 123°03'0 0.0
2017-Oct-11 22:00N 49°12' W 123°03'0 0.0
2017-Oct-11 21:30N 49°12' W 123°03'0 0.0
2017-Oct-11 19:59N 49°12' W 123°03'0 0.0
2017-Oct-11 19:30N 49°12' W 123°03'0 0.0
2017-Oct-11 19:00N 49°12' W 123°03'0 0.0
2017-Oct-11 18:30N 49°12' W 123°03'0 0.0
2017-Oct-11 17:58N 49°12' W 123°03'0 0.0
2017-Oct-11 17:30N 49°12' W 123°03'0 0.0
2017-Oct-11 17:00N 49°12' W 123°03'  
2017-Oct-05 03:07N 49°12' W 123°03'0 0.0
2017-Oct-05 03:01N 49°12' W 123°03'1 1.5
2017-Oct-05 02:31N 49°12' W 123°04'4 8.7
2017-Oct-05 02:01N 49°13' W 123°11'5 9.3
2017-Oct-05 01:31N 49°15' W 123°17'5 9.9
2017-Oct-05 01:01N 49°11' W 123°21'5 9.3
2017-Oct-05 00:30N 49°07' W 123°24'510.0
2017-Oct-05 00:00N 49°02' W 123°23'510.0
2017-Oct-04 23:30N 48°58' W 123°20'5 9.4
2017-Oct-04 23:01N 48°53' W 123°17'4 8.2
2017-Oct-04 22:30N 48°49' W 123°20'711.0
2017-Oct-04 21:50N 48°42' W 123°21'510.8
2017-Oct-04 21:22N 48°37' W 123°21'411.2
2017-Oct-04 21:01N 48°34' W 123°17'510.6
2017-Oct-04 20:31N 48°29' W 123°15'510.0
2017-Oct-04 20:01N 48°24' W 123°17'5 9.0
2017-Oct-04 19:30N 48°25' W 123°24'1 2.0
2017-Oct-04 19:00N 48°26' W 123°23'0 0.8
2017-Oct-04 18:31N 48°25' W 123°23'1 2.5
2017-Oct-04 18:01N 48°24' W 123°24'2 3.4
2017-Oct-04 17:31N 48°24' W 123°21'3 5.1
2017-Oct-04 17:01N 48°24' W 123°17'4 7.4
2017-Oct-04 16:31N 48°28' W 123°15'4 7.4
2017-Oct-04 16:01N 48°31' W 123°18'4 7.7
2017-Oct-04 15:30N 48°35' W 123°19'5 7.5
2017-Oct-04 14:51N 48°39' W 123°21'3 7.2
2017-Oct-04 14:29N 48°42' W 123°21'3 6.9
2017-Oct-04 13:59N 48°45' W 123°21'3 6.4
2017-Oct-04 13:30N 48°48' W 123°23'4 7.3
2017-Oct-04 13:00N 48°51' W 123°25'4 7.3
2017-Oct-04 12:30N 48°54' W 123°29'3 6.2
2017-Oct-04 12:01N 48°57' W 123°32'3 6.6
2017-Oct-04 11:31N 48°59' W 123°35'3 5.7
2017-Oct-04 11:00N 49°02' W 123°34'3 5.6
2017-Oct-04 10:30N 49°04' W 123°31'2 4.1
2017-Oct-04 10:00N 49°06' W 123°32'2 4.6
2017-Oct-04 09:30N 49°08' W 123°34'3 5.6
2017-Oct-04 09:00N 49°10' W 123°36'3 5.9
2017-Oct-04 08:31N 49°12' W 123°40'3 5.7
2017-Oct-04 08:00N 49°13' W 123°44'3 5.8
2017-Oct-04 07:30N 49°14' W 123°48'3 6.0
2017-Oct-04 07:01N 49°15' W 123°52'3 6.9
2017-Oct-04 06:30N 49°17' W 123°56'4 7.1
2017-Oct-04 06:01N 49°19' W 124°00'4 7.2
2017-Oct-04 05:31N 49°21' W 124°05'4 7.5
2017-Oct-04 05:00N 49°23' W 124°10'4 7.3
2017-Oct-04 04:30N 49°24' W 124°16'4 7.2
2017-Oct-04 04:00N 49°25' W 124°21'4 7.3
2017-Oct-04 03:31N 49°27' W 124°26'4 7.5
2017-Oct-04 03:01N 49°30' W 124°30'4 7.2
2017-Oct-04 02:30N 49°32' W 124°34'3 7.0
2017-Oct-04 02:01N 49°35' W 124°37'4 6.9
2017-Oct-04 01:30N 49°37' W 124°41'3 6.9
2017-Oct-04 01:01N 49°40' W 124°45'3 6.8
2017-Oct-04 00:30N 49°42' W 124°49'3 6.8
2017-Oct-04 00:00N 49°45' W 124°52'3 6.6
2017-Oct-03 23:30N 49°47' W 124°56'3 6.5
2017-Oct-03 23:01N 49°49' W 124°59'3 6.3
2017-Oct-03 22:30N 49°52' W 125°03'3 6.6
2017-Oct-03 22:00N 49°54' W 125°06'4 7.5
2017-Oct-03 21:30N 49°57' W 125°10'510.9
2017-Oct-03 21:00N 50°02' W 125°13'611.5
2017-Oct-03 20:31N 50°07' W 125°18'510.0
2017-Oct-03 20:00N 50°11' W 125°22'  
Track history (hours):
 
Tides and Currents Weather Stations Pressure Air Temp Water Temp Dewpoint Dewpoint Depression Visibility Wind Speed Wind Dir Waves Ship Positions

North Arm Prowler

Last reported at 2017-Oct-13 19:40 UTC. Time now 2017-Oct-17 22:52 UTC.
Position N 49°12' W 123°03'.

Length 16 m.

Type: Towing. MMSI: 316000551.

Date/timePositionNaut miles runAvg speedWind from/ knotsBaromVisibWave heightAir tempDewpointWater temp
2017-Oct-13 19:40N 49°12' W 123°03'0 2.7
2017-Oct-13 19:30N 49°12' W 123°04'3 5.6
2017-Oct-13 19:00N 49°12' W 123°08'0 0.0
2017-Oct-13 18:30N 49°12' W 123°08'1 1.5
2017-Oct-13 18:00N 49°12' W 123°07'1 2.3
2017-Oct-13 17:30N 49°12' W 123°05'1 2.3
2017-Oct-13 17:00N 49°12' W 123°07'1 1.4
2017-Oct-13 16:30N 49°12' W 123°06'1 2.3
2017-Oct-13 16:00N 49°12' W 123°04'1 1.5
2017-Oct-13 15:30N 49°12' W 123°03'0 0.0
2017-Oct-13 15:00N 49°12' W 123°03'0 0.0
2017-Oct-13 14:30N 49°12' W 123°03'0 0.0
2017-Oct-13 14:00N 49°12' W 123°03'0 0.0
2017-Oct-12 19:37N 49°12' W 123°03'0 0.0
2017-Oct-12 19:30N 49°12' W 123°03'0 0.0
2017-Oct-12 19:00N 49°12' W 123°03'0 0.0
2017-Oct-12 18:30N 49°12' W 123°03'0 0.0
2017-Oct-12 18:00N 49°12' W 123°03'0 0.0
2017-Oct-12 17:30N 49°12' W 123°03'0 0.0
2017-Oct-12 17:00N 49°12' W 123°03'0 0.0
2017-Oct-12 16:30N 49°12' W 123°03'0 0.0
2017-Oct-12 16:00N 49°12' W 123°03'0 0.0
2017-Oct-12 15:31N 49°12' W 123°03'0 0.0
2017-Oct-12 15:00N 49°12' W 123°03'0 0.0
2017-Oct-12 14:31N 49°12' W 123°03'0 0.0
2017-Oct-12 14:00N 49°12' W 123°03'0 0.0
2017-Oct-12 13:30N 49°12' W 123°03'0 0.0
2017-Oct-12 13:01N 49°12' W 123°03'0 0.0
2017-Oct-12 12:30N 49°12' W 123°03'0 0.0
2017-Oct-12 12:00N 49°12' W 123°03'0 0.0
2017-Oct-12 11:30N 49°12' W 123°03'0 0.0
2017-Oct-12 11:01N 49°12' W 123°03'0 0.0
2017-Oct-12 10:30N 49°12' W 123°03'0 0.0
2017-Oct-12 10:01N 49°12' W 123°03'0 0.0
2017-Oct-12 09:30N 49°12' W 123°03'0 0.0
2017-Oct-12 09:00N 49°12' W 123°03'0 0.0
2017-Oct-12 08:30N 49°12' W 123°03'0 0.0
2017-Oct-12 08:01N 49°12' W 123°03'0 0.0
2017-Oct-12 07:30N 49°12' W 123°03'0 0.0
2017-Oct-12 07:00N 49°12' W 123°03'0 0.0
2017-Oct-12 06:30N 49°12' W 123°03'0 0.0
2017-Oct-12 06:01N 49°12' W 123°03'0 0.0
2017-Oct-12 05:30N 49°12' W 123°03'0 0.0
2017-Oct-12 05:00N 49°12' W 123°03'0 0.0
2017-Oct-12 04:30N 49°12' W 123°03'0 0.0
2017-Oct-12 04:00N 49°12' W 123°03'0 0.0
2017-Oct-12 03:31N 49°12' W 123°03'0 0.0
2017-Oct-12 03:00N 49°12' W 123°03'0 0.0
2017-Oct-12 02:30N 49°12' W 123°03'0 0.0
2017-Oct-12 02:00N 49°12' W 123°03'0 0.0
2017-Oct-12 01:31N 49°12' W 123°03'0 0.0
2017-Oct-12 01:00N 49°12' W 123°03'0 0.0
2017-Oct-12 00:30N 49°12' W 123°03'0 0.0
2017-Oct-12 00:01N 49°12' W 123°03'0 0.0
2017-Oct-11 23:30N 49°12' W 123°03'0 0.0
2017-Oct-11 23:00N 49°12' W 123°03'0 0.0
2017-Oct-11 22:30N 49°12' W 123°03'0 0.0
2017-Oct-11 22:00N 49°12' W 123°03'0 0.0
2017-Oct-11 21:30N 49°12' W 123°03'0 0.0
2017-Oct-11 19:59N 49°12' W 123°03'0 0.0
2017-Oct-11 19:30N 49°12' W 123°03'0 0.0
2017-Oct-11 19:00N 49°12' W 123°03'0 0.0
2017-Oct-11 18:30N 49°12' W 123°03'0 0.0
2017-Oct-11 17:58N 49°12' W 123°03'0 0.0
2017-Oct-11 17:30N 49°12' W 123°03'0 0.0
2017-Oct-11 17:00N 49°12' W 123°03'  
2017-Oct-05 03:07N 49°12' W 123°03'0 0.0
2017-Oct-05 03:01N 49°12' W 123°03'1 1.5
2017-Oct-05 02:31N 49°12' W 123°04'4 8.7
2017-Oct-05 02:01N 49°13' W 123°11'5 9.3
2017-Oct-05 01:31N 49°15' W 123°17'5 9.9
2017-Oct-05 01:01N 49°11' W 123°21'5 9.3
2017-Oct-05 00:30N 49°07' W 123°24'510.0
2017-Oct-05 00:00N 49°02' W 123°23'510.0
2017-Oct-04 23:30N 48°58' W 123°20'5 9.4
2017-Oct-04 23:01N 48°53' W 123°17'4 8.2
2017-Oct-04 22:30N 48°49' W 123°20'711.0
2017-Oct-04 21:50N 48°42' W 123°21'510.8
2017-Oct-04 21:22N 48°37' W 123°21'411.2
2017-Oct-04 21:01N 48°34' W 123°17'510.6
2017-Oct-04 20:31N 48°29' W 123°15'510.0
2017-Oct-04 20:01N 48°24' W 123°17'5 9.0
2017-Oct-04 19:30N 48°25' W 123°24'1 2.0
2017-Oct-04 19:00N 48°26' W 123°23'0 0.8
2017-Oct-04 18:31N 48°25' W 123°23'1 2.5
2017-Oct-04 18:01N 48°24' W 123°24'2 3.4
2017-Oct-04 17:31N 48°24' W 123°21'3 5.1
2017-Oct-04 17:01N 48°24' W 123°17'4 7.4
2017-Oct-04 16:31N 48°28' W 123°15'4 7.4
2017-Oct-04 16:01N 48°31' W 123°18'4 7.7
2017-Oct-04 15:30N 48°35' W 123°19'5 7.5
2017-Oct-04 14:51N 48°39' W 123°21'3 7.2
2017-Oct-04 14:29N 48°42' W 123°21'3 6.9
2017-Oct-04 13:59N 48°45' W 123°21'3 6.4
2017-Oct-04 13:30N 48°48' W 123°23'4 7.3
2017-Oct-04 13:00N 48°51' W 123°25'4 7.3
2017-Oct-04 12:30N 48°54' W 123°29'3 6.2
2017-Oct-04 12:01N 48°57' W 123°32'3 6.6
2017-Oct-04 11:31N 48°59' W 123°35'3 5.7
2017-Oct-04 11:00N 49°02' W 123°34'3 5.6
2017-Oct-04 10:30N 49°04' W 123°31'2 4.1
2017-Oct-04 10:00N 49°06' W 123°32'2 4.6
2017-Oct-04 09:30N 49°08' W 123°34'3 5.6
2017-Oct-04 09:00N 49°10' W 123°36'3 5.9
2017-Oct-04 08:31N 49°12' W 123°40'3 5.7
2017-Oct-04 08:00N 49°13' W 123°44'3 5.8
2017-Oct-04 07:30N 49°14' W 123°48'3 6.0
2017-Oct-04 07:01N 49°15' W 123°52'3 6.9
2017-Oct-04 06:30N 49°17' W 123°56'4 7.1
2017-Oct-04 06:01N 49°19' W 124°00'4 7.2
2017-Oct-04 05:31N 49°21' W 124°05'4 7.5
2017-Oct-04 05:00N 49°23' W 124°10'4 7.3
2017-Oct-04 04:30N 49°24' W 124°16'4 7.2
2017-Oct-04 04:00N 49°25' W 124°21'4 7.3
2017-Oct-04 03:31N 49°27' W 124°26'4 7.5
2017-Oct-04 03:01N 49°30' W 124°30'4 7.2
2017-Oct-04 02:30N 49°32' W 124°34'3 7.0
2017-Oct-04 02:01N 49°35' W 124°37'4 6.9
2017-Oct-04 01:30N 49°37' W 124°41'3 6.9
2017-Oct-04 01:01N 49°40' W 124°45'3 6.8
2017-Oct-04 00:30N 49°42' W 124°49'3 6.8
2017-Oct-04 00:00N 49°45' W 124°52'3 6.6
2017-Oct-03 23:30N 49°47' W 124°56'3 6.5
2017-Oct-03 23:01N 49°49' W 124°59'3 6.3
2017-Oct-03 22:30N 49°52' W 125°03'3 6.6
2017-Oct-03 22:00N 49°54' W 125°06'4 7.5
2017-Oct-03 21:30N 49°57' W 125°10'510.9
2017-Oct-03 21:00N 50°02' W 125°13'611.5
2017-Oct-03 20:31N 50°07' W 125°18'510.0
2017-Oct-03 20:00N 50°11' W 125°22'  

Dump ship's entire track history